createdAt,value
2022-08-05T00:00:18.339Z,19.50
2022-08-05T00:02:50.825Z,19.60
2022-08-05T00:06:03.096Z,19.60
2022-08-05T00:08:32.530Z,19.50
2022-08-05T00:11:01.696Z,19.50
2022-08-05T00:13:39.634Z,19.40
2022-08-05T00:16:12.299Z,19.30
2022-08-05T00:18:46.441Z,19.40
2022-08-05T00:21:17.648Z,19.40
2022-08-05T00:23:53.758Z,19.30
2022-08-05T00:26:34.798Z,19.40
2022-08-05T00:29:02.110Z,19.30
2022-08-05T00:31:54.035Z,19.40
2022-08-05T00:34:56.798Z,19.40
2022-08-05T00:37:12.517Z,19.30
2022-08-05T00:39:58.153Z,19.30
2022-08-05T00:42:42.397Z,19.30
2022-08-05T00:45:15.360Z,19.40
2022-08-05T00:47:57.246Z,19.40
2022-08-05T00:50:29.400Z,19.30
2022-08-05T00:52:56.408Z,19.30
2022-08-05T00:55:33.971Z,19.30
2022-08-05T00:58:13.916Z,19.30
2022-08-05T01:00:42.102Z,19.30
2022-08-05T01:03:15.000Z,19.30
2022-08-05T01:05:49.483Z,19.30
2022-08-05T01:08:39.899Z,19.30
2022-08-05T01:11:33.296Z,19.30
2022-08-05T01:14:28.769Z,19.30
2022-08-05T01:17:21.714Z,19.20
2022-08-05T01:20:14.530Z,19.20
2022-08-05T01:22:54.114Z,19.30
2022-08-05T01:26:05.094Z,19.40
2022-08-05T01:28:43.737Z,19.30
2022-08-05T01:31:42.802Z,19.20
2022-08-05T01:34:35.922Z,19.10
2022-08-05T01:37:24.378Z,19.20
2022-08-05T01:39:58.764Z,19.20
2022-08-05T01:42:27.879Z,19.20
2022-08-05T01:44:59.876Z,19.20
2022-08-05T01:47:39.442Z,19.20
2022-08-05T01:50:28.596Z,19.10
2022-08-05T01:53:01.467Z,19.20
2022-08-05T01:55:36.032Z,19.20
2022-08-05T01:58:24.724Z,19.20
2022-08-05T02:00:59.443Z,19.10
2022-08-05T02:03:38.998Z,19.00
2022-08-05T02:06:33.548Z,19.00
2022-08-05T02:08:58.193Z,19.00
2022-08-05T02:11:32.811Z,19.10
2022-08-05T02:14:47.937Z,19.00
2022-08-05T02:18:30.925Z,19.10
2022-08-05T02:20:26.607Z,19.10
2022-08-05T02:23:02.327Z,19.10
2022-08-05T02:25:50.148Z,19.00
2022-08-05T02:28:29.337Z,19.00
2022-08-05T02:31:21.945Z,19.00
2022-08-05T02:34:09.240Z,19.10
2022-08-05T02:36:45.684Z,19.00
2022-08-05T02:39:21.457Z,19.00
2022-08-05T02:42:00.706Z,18.90
2022-08-05T02:44:31.713Z,18.90
2022-08-05T02:47:01.057Z,18.80
2022-08-05T02:49:37.670Z,18.80
2022-08-05T02:52:29.556Z,18.80
2022-08-05T02:54:58.723Z,18.90
2022-08-05T02:58:20.178Z,18.90
2022-08-05T03:00:17.884Z,18.80
2022-08-05T03:02:47.742Z,18.80
2022-08-05T03:05:16.027Z,18.80
2022-08-05T03:08:06.766Z,18.80
2022-08-05T03:10:31.557Z,18.70
2022-08-05T03:15:27.630Z,18.70
2022-08-05T03:17:57.496Z,18.70
2022-08-05T03:20:25.135Z,18.70
2022-08-05T03:22:57.316Z,18.70
2022-08-05T03:25:33.617Z,18.60
2022-08-05T03:28:14.520Z,18.70
2022-08-05T03:30:48.534Z,18.60
2022-08-05T03:33:16.540Z,18.60
2022-08-05T03:35:46.671Z,18.70
2022-08-05T03:38:15.041Z,18.60
2022-08-05T03:40:48.573Z,18.50
2022-08-05T03:44:09.947Z,18.50
2022-08-05T03:46:05.154Z,18.50
2022-08-05T03:48:36.756Z,18.40
2022-08-05T03:52:37.772Z,18.40
2022-08-05T03:55:07.215Z,18.40
2022-08-05T03:57:41.775Z,18.30
2022-08-05T04:00:15.956Z,18.30
2022-08-05T04:02:57.641Z,18.20
2022-08-05T04:05:35.562Z,18.20
2022-08-05T04:08:30.235Z,18.10
2022-08-05T04:10:58.765Z,18.10
2022-08-05T04:13:27.866Z,18.10
2022-08-05T04:16:14.777Z,18.10
2022-08-05T04:18:44.859Z,18.00
2022-08-05T04:22:05.872Z,17.90
2022-08-05T04:24:06.211Z,18.00
2022-08-05T04:26:34.584Z,17.90
2022-08-05T04:29:07.240Z,18.10
2022-08-05T04:31:38.591Z,18.00
2022-08-05T04:34:31.450Z,18.00
2022-08-05T04:36:53.874Z,18.10
2022-08-05T04:39:21.125Z,18.00
2022-08-05T04:41:51.053Z,18.00
2022-08-05T04:44:21.503Z,17.90
2022-08-05T04:46:58.785Z,17.90
2022-08-05T04:49:38.823Z,17.90
2022-08-05T04:52:15.685Z,17.90
2022-08-05T04:54:42.852Z,18.00
2022-08-05T04:57:10.079Z,17.90
2022-08-05T04:59:40.489Z,18.00
2022-08-05T05:02:36.766Z,18.00
2022-08-05T05:05:01.983Z,18.00
2022-08-05T05:07:32.256Z,18.10
2022-08-05T05:10:04.417Z,18.10
2022-08-05T05:12:31.998Z,18.10
2022-08-05T05:14:59.101Z,18.00
2022-08-05T05:17:57.142Z,18.00
2022-08-05T05:20:28.364Z,18.10
2022-08-05T05:22:58.295Z,18.00
2022-08-05T05:25:32.673Z,18.10
2022-08-05T05:28:08.552Z,18.20
2022-08-05T05:30:37.223Z,18.10
2022-08-05T05:33:14.006Z,18.10
2022-08-05T05:35:45.278Z,18.20
2022-08-05T05:38:14.018Z,18.10
2022-08-05T05:40:49.442Z,18.00
2022-08-05T05:43:28.114Z,18.10
2022-08-05T05:46:05.103Z,18.20
2022-08-05T05:48:32.935Z,18.00
2022-08-05T05:51:14.804Z,18.10
2022-08-05T05:53:54.222Z,18.00
2022-08-05T05:56:32.386Z,18.10
2022-08-05T05:59:06.390Z,18.10
2022-08-05T06:01:40.793Z,18.10
2022-08-05T06:04:24.747Z,18.10
2022-08-05T06:06:51.834Z,17.90
2022-08-05T06:09:25.831Z,18.00
2022-08-05T06:12:06.920Z,18.10
2022-08-05T06:14:37.013Z,18.00
2022-08-05T06:17:24.314Z,18.20
2022-08-05T06:19:56.947Z,18.20
2022-08-05T06:22:33.481Z,18.30
2022-08-05T06:25:25.136Z,18.30
2022-08-05T06:28:11.032Z,18.30
2022-08-05T06:30:38.014Z,18.40
2022-08-05T06:33:04.999Z,18.40
2022-08-05T06:36:08.343Z,18.40
2022-08-05T06:38:35.593Z,18.40
2022-08-05T06:41:05.245Z,18.60
2022-08-05T06:43:58.027Z,18.60
2022-08-05T06:46:23.170Z,18.60
2022-08-05T06:48:59.692Z,18.60
2022-08-05T06:51:29.841Z,18.70
2022-08-05T06:54:04.138Z,18.60
2022-08-05T06:56:34.437Z,18.80
2022-08-05T06:59:08.653Z,18.90
2022-08-05T07:01:37.237Z,18.90
2022-08-05T07:04:08.099Z,18.70
2022-08-05T07:06:35.166Z,18.90
2022-08-05T07:09:03.746Z,19.10
2022-08-05T07:11:36.800Z,19.20
2022-08-05T07:14:30.349Z,19.10
2022-08-05T07:18:01.903Z,19.20
2022-08-05T07:22:42.192Z,19.40
2022-08-05T07:25:53.887Z,19.50
2022-08-05T07:28:03.794Z,19.60
2022-08-05T07:30:38.349Z,19.70
2022-08-05T07:33:16.587Z,19.50
2022-08-05T07:36:03.088Z,19.70
2022-08-05T07:38:43.549Z,19.90
2022-08-05T07:42:13.074Z,19.70
2022-08-05T07:44:18.824Z,19.80
2022-08-05T07:46:49.346Z,20.00
2022-08-05T07:49:18.232Z,19.90
2022-08-05T07:51:54.603Z,19.70
2022-08-05T07:54:31.227Z,20.00
2022-08-05T07:57:22.478Z,20.20
2022-08-05T07:59:52.262Z,20.10
2022-08-05T08:02:26.739Z,20.30
2022-08-05T08:05:00.082Z,20.30
2022-08-05T08:07:28.360Z,20.30
2022-08-05T08:09:55.834Z,20.50
2022-08-05T08:12:35.520Z,20.60
2022-08-05T08:15:13.933Z,20.30
2022-08-05T08:17:50.592Z,20.50
2022-08-05T08:20:59.740Z,20.60
2022-08-05T08:24:01.070Z,20.90
2022-08-05T08:26:02.473Z,21.00
2022-08-05T08:28:36.849Z,21.30
2022-08-05T08:31:07.972Z,21.20
2022-08-05T08:33:35.971Z,20.90
2022-08-05T08:38:56.166Z,21.50
2022-08-05T08:41:51.239Z,21.30
2022-08-05T08:45:21.421Z,21.20
2022-08-05T08:47:46.970Z,21.40
2022-08-05T08:50:23.315Z,21.50
2022-08-05T08:52:56.838Z,21.20
2022-08-05T08:56:02.150Z,21.30
2022-08-05T08:58:15.031Z,21.30
2022-08-05T09:00:42.955Z,21.20
2022-08-05T09:03:12.178Z,21.20
2022-08-05T09:06:09.221Z,20.90
2022-08-05T09:08:30.525Z,20.70
2022-08-05T09:10:58.271Z,21.00
2022-08-05T09:13:31.708Z,21.00
2022-08-05T09:16:14.536Z,21.00
2022-08-05T09:18:44.498Z,21.10
2022-08-05T09:21:20.688Z,21.50
2022-08-05T09:24:10.180Z,21.70
2022-08-05T09:26:37.860Z,21.50
2022-08-05T09:29:09.671Z,21.60
2022-08-05T09:32:42.167Z,21.90
2022-08-05T09:34:26.151Z,21.80
2022-08-05T09:36:55.574Z,21.60
2022-08-05T09:39:39.332Z,21.80
2022-08-05T09:42:13.612Z,21.80
2022-08-05T09:44:50.525Z,22.10
2022-08-05T09:47:25.644Z,22.50
2022-08-05T09:50:02.392Z,22.70
2022-08-05T09:52:34.245Z,22.40
2022-08-05T09:55:57.653Z,22.50
2022-08-05T09:57:59.711Z,23.00
2022-08-05T10:00:29.556Z,23.10
2022-08-05T10:02:58.344Z,22.80
2022-08-05T10:05:28.538Z,22.50
2022-08-05T10:08:35.319Z,22.20
2022-08-05T10:10:54.704Z,21.90
2022-08-05T10:13:47.133Z,22.00
2022-08-05T10:16:52.435Z,22.10
2022-08-05T10:19:23.627Z,22.20
2022-08-05T10:22:09.118Z,22.20
2022-08-05T10:24:43.011Z,22.10
2022-08-05T10:27:16.679Z,22.40
2022-08-05T10:30:07.002Z,22.40
2022-08-05T10:32:52.142Z,22.50
2022-08-05T10:35:20.019Z,22.60
2022-08-05T10:38:01.613Z,22.80
2022-08-05T10:40:34.209Z,22.80
2022-08-05T10:43:47.760Z,22.60
2022-08-05T10:46:18.887Z,22.20
2022-08-05T10:49:02.720Z,21.80
2022-08-05T10:52:05.530Z,21.80
2022-08-05T10:55:02.249Z,22.20
2022-08-05T10:57:32.008Z,22.40
2022-08-05T11:00:20.858Z,22.70
2022-08-05T11:03:25.169Z,22.90
2022-08-05T11:06:15.579Z,23.20
2022-08-05T11:09:13.011Z,22.90
2022-08-05T11:11:52.589Z,23.20
2022-08-05T11:15:01.241Z,23.50
2022-08-05T11:17:59.654Z,23.50
2022-08-05T11:20:46.075Z,23.50
2022-08-05T11:24:03.383Z,23.40
2022-08-05T11:26:32.614Z,23.40
2022-08-05T11:29:06.788Z,23.50
2022-08-05T11:31:56.561Z,23.40
2022-08-05T11:34:51.547Z,23.50
2022-08-05T11:38:29.209Z,23.40
2022-08-05T11:41:13.834Z,23.60
2022-08-05T11:44:40.623Z,23.70
2022-08-05T11:47:11.242Z,23.90
2022-08-05T11:49:49.865Z,24.10
2022-08-05T11:52:29.921Z,24.30
2022-08-05T11:55:07.740Z,24.30
2022-08-05T11:58:08.301Z,23.90
2022-08-05T12:00:29.240Z,24.30
2022-08-05T12:02:57.694Z,24.70
2022-08-05T12:05:36.047Z,24.90
2022-08-05T12:08:09.883Z,24.50
2022-08-05T12:10:45.258Z,23.90
2022-08-05T12:13:28.203Z,23.60
2022-08-05T12:16:15.049Z,23.60
2022-08-05T12:18:49.349Z,23.40
2022-08-05T12:21:38.942Z,23.60
2022-08-05T12:24:10.814Z,23.30
2022-08-05T12:26:53.879Z,23.30
2022-08-05T12:29:24.165Z,23.30
2022-08-05T12:31:58.089Z,23.20
2022-08-05T12:34:37.114Z,22.90
2022-08-05T12:37:17.370Z,23.10
2022-08-05T12:39:53.932Z,23.40
2022-08-05T12:42:25.379Z,23.30
2022-08-05T12:44:52.651Z,23.60
2022-08-05T12:47:31.043Z,23.10
2022-08-05T12:50:01.969Z,23.30
2022-08-05T12:52:33.853Z,23.30
2022-08-05T12:55:15.826Z,23.30
2022-08-05T12:58:39.188Z,23.40
2022-08-05T13:02:01.454Z,23.10
2022-08-05T13:03:18.545Z,23.30
2022-08-05T13:05:48.695Z,23.00
2022-08-05T13:08:20.241Z,23.20
2022-08-05T13:10:50.543Z,23.40
2022-08-05T13:14:04.639Z,23.30
2022-08-05T13:16:15.340Z,23.20
2022-08-05T13:18:57.951Z,23.30
2022-08-05T13:21:28.363Z,23.30
2022-08-05T13:24:08.821Z,23.60
2022-08-05T13:26:36.517Z,23.60
2022-08-05T13:29:05.111Z,23.50
2022-08-05T13:32:03.451Z,23.30
2022-08-05T13:34:22.026Z,23.30
2022-08-05T13:36:53.700Z,23.50
2022-08-05T13:40:13.378Z,23.30
2022-08-05T13:42:14.585Z,23.40
2022-08-05T13:44:46.403Z,23.50
2022-08-05T13:47:34.738Z,23.50
2022-08-05T13:50:06.843Z,23.60
2022-08-05T13:52:38.578Z,23.50
2022-08-05T13:55:07.417Z,23.70
2022-08-05T13:57:51.463Z,23.70
2022-08-05T14:00:27.106Z,23.70
2022-08-05T14:02:57.304Z,23.80
2022-08-05T14:05:47.913Z,23.70
2022-08-05T14:08:21.005Z,23.80
2022-08-05T14:10:59.828Z,23.90
2022-08-05T14:13:42.269Z,23.80
2022-08-05T14:16:11.188Z,24.20
2022-08-05T14:18:38.682Z,24.20
2022-08-05T14:22:06.970Z,24.30
2022-08-05T14:23:53.296Z,23.70
2022-08-05T14:26:37.026Z,23.80
2022-08-05T14:29:09.996Z,23.30
2022-08-05T14:32:02.724Z,23.10
2022-08-05T14:34:35.627Z,23.30
2022-08-05T14:37:04.669Z,23.60
2022-08-05T14:39:50.202Z,23.20
2022-08-05T14:42:21.830Z,23.20
2022-08-05T14:44:49.755Z,23.20
2022-08-05T14:47:17.615Z,23.30
2022-08-05T14:50:14.189Z,23.60
2022-08-05T14:52:52.997Z,23.70
2022-08-05T14:55:20.420Z,23.70
2022-08-05T14:57:54.771Z,23.80
2022-08-05T15:00:27.961Z,23.90
2022-08-05T15:02:55.639Z,24.30
2022-08-05T15:05:29.784Z,24.40
2022-08-05T15:08:09.144Z,23.90
2022-08-05T15:10:46.237Z,23.40
2022-08-05T15:13:14.348Z,24.20
2022-08-05T15:15:55.261Z,24.60
2022-08-05T15:18:24.999Z,24.10
2022-08-05T15:20:52.111Z,23.60
2022-08-05T15:23:19.876Z,24.10
2022-08-05T15:25:53.384Z,23.60
2022-08-05T15:28:27.348Z,23.60
2022-08-05T15:30:55.286Z,23.30
2022-08-05T15:34:04.813Z,23.10
2022-08-05T15:36:16.786Z,23.00
2022-08-05T15:38:46.604Z,23.00
2022-08-05T15:41:22.838Z,23.50
2022-08-05T15:43:54.671Z,23.00
2022-08-05T15:46:24.042Z,22.90
2022-08-05T15:49:01.463Z,23.30
2022-08-05T15:52:04.356Z,23.80
2022-08-05T15:54:35.093Z,23.10
2022-08-05T15:57:07.603Z,23.10
2022-08-05T15:59:38.250Z,23.00
2022-08-05T16:02:09.716Z,22.80
2022-08-05T16:04:43.477Z,22.70
2022-08-05T16:07:11.454Z,22.80
2022-08-05T16:09:41.487Z,23.40
2022-08-05T16:12:09.632Z,24.00
2022-08-05T16:14:38.596Z,23.90
2022-08-05T16:17:05.721Z,23.20
2022-08-05T16:20:04.443Z,22.90
2022-08-05T16:22:27.511Z,22.90
2022-08-05T16:25:05.323Z,22.80
2022-08-05T16:27:59.895Z,22.70
2022-08-05T16:30:26.038Z,22.60
2022-08-05T16:32:54.241Z,23.70
2022-08-05T16:35:27.806Z,23.30
2022-08-05T16:38:15.171Z,23.60
2022-08-05T16:40:47.670Z,24.50
2022-08-05T16:43:19.840Z,25.10
2022-08-05T16:46:06.669Z,24.70
2022-08-05T16:48:35.806Z,23.20
2022-08-05T16:51:08.697Z,23.00
2022-08-05T16:54:05.421Z,22.50
2022-08-05T16:56:26.863Z,22.90
2022-08-05T16:58:54.300Z,22.80
2022-08-05T17:01:21.582Z,23.70
2022-08-05T17:03:52.040Z,22.50
2022-08-05T17:06:20.149Z,22.00
2022-08-05T17:08:54.180Z,22.10
2022-08-05T17:11:23.731Z,21.80
2022-08-05T17:14:00.306Z,22.00
2022-08-05T17:16:37.802Z,22.90
2022-08-05T17:19:09.645Z,22.30
2022-08-05T17:21:39.817Z,21.80
2022-08-05T17:24:19.810Z,21.90
2022-08-05T17:26:59.015Z,22.00
2022-08-05T17:29:33.698Z,22.70
2022-08-05T17:32:26.128Z,22.40
2022-08-05T17:34:53.383Z,22.90
2022-08-05T17:37:40.575Z,22.50
2022-08-05T17:40:12.349Z,24.10
2022-08-05T17:42:41.664Z,24.60
2022-08-05T17:45:20.330Z,23.70
2022-08-05T17:47:54.451Z,23.10
2022-08-05T17:50:30.526Z,23.10
2022-08-05T17:53:05.477Z,22.70
2022-08-05T17:55:37.170Z,22.40
2022-08-05T17:58:10.924Z,22.20
2022-08-05T18:00:47.164Z,22.30
2022-08-05T18:03:56.259Z,22.50
2022-08-05T18:06:12.244Z,23.60
2022-08-05T18:08:45.832Z,23.60
2022-08-05T18:11:24.131Z,22.50
2022-08-05T18:13:57.110Z,22.00
2022-08-05T18:16:26.722Z,21.30
2022-08-05T18:18:53.818Z,21.20
2022-08-05T18:21:23.026Z,20.90
2022-08-05T18:23:54.318Z,20.90
2022-08-05T18:26:29.209Z,20.80
2022-08-05T18:28:59.839Z,20.60
2022-08-05T18:31:32.916Z,20.50
2022-08-05T18:34:06.057Z,20.40
2022-08-05T18:36:35.422Z,20.00
2022-08-05T18:39:06.552Z,19.90
2022-08-05T18:41:55.344Z,19.80
2022-08-05T18:44:33.376Z,19.90
2022-08-05T18:47:03.898Z,19.60
2022-08-05T18:49:57.897Z,19.50
2022-08-05T18:52:33.695Z,19.50
2022-08-05T18:55:06.225Z,19.50
2022-08-05T18:57:50.209Z,19.40
2022-08-05T19:00:28.774Z,19.20
2022-08-05T19:02:57.845Z,19.20
2022-08-05T19:06:12.871Z,19.10
2022-08-05T19:08:19.276Z,19.00
2022-08-05T19:10:50.471Z,18.90
2022-08-05T19:13:18.351Z,19.00
2022-08-05T19:16:00.165Z,19.00
2022-08-05T19:18:30.658Z,18.90
2022-08-05T19:20:59.607Z,18.70
2022-08-05T19:24:05.456Z,18.50
2022-08-05T19:26:16.554Z,18.60
2022-08-05T19:28:43.929Z,18.60
2022-08-05T19:31:17.715Z,18.40
2022-08-05T19:33:48.537Z,18.30
2022-08-05T19:36:26.745Z,18.30
2022-08-05T19:39:01.046Z,18.30
2022-08-05T19:41:57.976Z,18.30
2022-08-05T19:44:18.678Z,18.00
2022-08-05T19:46:46.457Z,18.10
2022-08-05T19:49:16.552Z,18.00
2022-08-05T19:52:05.667Z,18.00
2022-08-05T19:54:32.866Z,17.80
2022-08-05T19:57:08.645Z,17.90
2022-08-05T19:59:56.736Z,17.80
2022-08-05T20:02:30.456Z,17.80
2022-08-05T20:04:59.792Z,17.70
2022-08-05T20:07:46.214Z,17.60
2022-08-05T20:10:16.681Z,17.60
2022-08-05T20:12:46.077Z,17.60
2022-08-05T20:15:48.782Z,17.50
2022-08-05T20:18:10.470Z,17.50
2022-08-05T20:20:55.296Z,17.30
2022-08-05T20:23:40.569Z,17.30
2022-08-05T20:26:16.485Z,17.10
2022-08-05T20:28:48.569Z,17.00
2022-08-05T20:31:17.450Z,17.10
2022-08-05T20:33:49.361Z,17.00
2022-08-05T20:36:17.978Z,17.00
2022-08-05T20:38:54.461Z,16.80
2022-08-05T20:41:44.472Z,16.80
2022-08-05T20:44:19.418Z,16.70
2022-08-05T20:47:01.953Z,16.70
2022-08-05T20:49:37.772Z,16.60
2022-08-05T20:52:07.294Z,16.60
2022-08-05T20:54:43.288Z,16.50
2022-08-05T20:57:24.905Z,16.40
2022-08-05T21:00:41.204Z,16.50
2022-08-05T21:03:06.356Z,16.30
2022-08-05T21:05:47.654Z,16.30
2022-08-05T21:08:26.804Z,16.30
2022-08-05T21:11:00.483Z,16.30
2022-08-05T21:13:55.758Z,16.20
2022-08-05T21:16:19.392Z,16.10
2022-08-05T21:18:46.455Z,16.00
2022-08-05T21:21:14.735Z,16.00
2022-08-05T21:23:42.756Z,16.00
2022-08-05T21:26:14.381Z,15.90
2022-08-05T21:28:47.727Z,16.00
2022-08-05T21:31:18.334Z,15.80
2022-08-05T21:33:47.874Z,15.80
2022-08-05T21:36:27.754Z,15.80
2022-08-05T21:38:57.381Z,15.70
2022-08-05T21:41:26.055Z,15.70
2022-08-05T21:44:04.192Z,15.70
2022-08-05T21:46:34.214Z,15.60
2022-08-05T21:49:04.768Z,15.60
2022-08-05T21:52:15.781Z,15.50
2022-08-05T21:54:30.731Z,15.40
2022-08-05T21:57:29.782Z,15.20
2022-08-05T22:00:03.892Z,15.10
2022-08-05T22:02:33.852Z,15.10
2022-08-05T22:05:00.936Z,15.10
2022-08-05T22:07:39.851Z,15.00
2022-08-05T22:10:17.792Z,14.90
2022-08-05T22:14:05.027Z,14.90
2022-08-05T22:16:00.595Z,15.00
2022-08-05T22:18:31.911Z,14.90
2022-08-05T22:20:59.198Z,14.80
2022-08-05T22:24:02.034Z,14.80
2022-08-05T22:26:49.745Z,14.70
2022-08-05T22:29:18.814Z,14.60
2022-08-05T22:31:55.352Z,14.60
2022-08-05T22:34:29.046Z,14.60
2022-08-05T22:36:58.719Z,14.50
2022-08-05T22:39:33.404Z,14.30
2022-08-05T22:42:12.553Z,14.30
2022-08-05T22:44:48.201Z,14.30
2022-08-05T22:47:29.217Z,14.30
2022-08-05T22:50:22.860Z,14.20
2022-08-05T22:52:51.332Z,14.20
2022-08-05T22:55:21.396Z,14.20
2022-08-05T22:57:53.172Z,14.20
2022-08-05T23:00:22.605Z,13.90
2022-08-05T23:02:52.109Z,13.90
2022-08-05T23:05:22.234Z,13.90
2022-08-05T23:07:50.962Z,13.80
2022-08-05T23:10:20.873Z,13.80
2022-08-05T23:12:55.105Z,13.70
2022-08-05T23:15:27.124Z,13.80
2022-08-05T23:18:00.850Z,13.90
2022-08-05T23:20:37.207Z,13.80
2022-08-05T23:23:08.006Z,13.80
2022-08-05T23:25:52.477Z,13.70
2022-08-05T23:28:28.923Z,13.50
2022-08-05T23:31:16.620Z,13.50
2022-08-05T23:34:05.613Z,13.40
2022-08-05T23:36:38.789Z,13.40
2022-08-05T23:39:17.544Z,13.50
2022-08-05T23:41:59.901Z,13.50
2022-08-05T23:44:28.059Z,13.40
2022-08-05T23:47:02.550Z,13.40
2022-08-05T23:49:45.668Z,13.30
2022-08-05T23:52:32.679Z,13.10
2022-08-05T23:55:09.638Z,13.00
2022-08-05T23:57:38.091Z,12.90
